createdAt,value
2023-02-07T00:00:21.543Z,6.30
2023-02-07T00:02:49.440Z,6.13
2023-02-07T00:05:16.472Z,5.67
2023-02-07T00:07:43.609Z,5.30
2023-02-07T00:10:10.652Z,5.87
2023-02-07T00:12:37.536Z,5.53
2023-02-07T00:15:04.744Z,5.87
2023-02-07T00:17:32.083Z,5.70
2023-02-07T00:19:58.893Z,6.27
2023-02-07T00:22:25.717Z,6.10
2023-02-07T00:24:52.560Z,5.70
2023-02-07T00:27:19.365Z,4.97
2023-02-07T00:29:46.188Z,6.40
2023-02-07T00:32:12.960Z,6.47
2023-02-07T00:34:39.669Z,5.37
2023-02-07T00:37:06.852Z,5.50
2023-02-07T00:39:34.577Z,5.90
2023-02-07T00:42:01.325Z,5.80
2023-02-07T00:44:28.127Z,5.33
2023-02-07T00:46:54.943Z,5.10
2023-02-07T00:49:21.826Z,5.20
2023-02-07T00:51:48.554Z,5.07
2023-02-07T00:54:15.476Z,5.37
2023-02-07T00:56:42.442Z,4.80
2023-02-07T00:59:09.558Z,5.17
2023-02-07T01:01:37.268Z,6.20
2023-02-07T01:04:04.176Z,5.90
2023-02-07T01:06:33.801Z,6.30
2023-02-07T01:09:01.994Z,5.50
2023-02-07T01:11:29.679Z,5.67
2023-02-07T01:13:59.294Z,5.80
2023-02-07T01:16:32.411Z,6.33
2023-02-07T01:19:02.207Z,5.90
2023-02-07T01:21:29.023Z,6.10
2023-02-07T01:23:58.801Z,7.53
2023-02-07T01:26:26.551Z,7.00
2023-02-07T01:28:55.194Z,6.80
2023-02-07T01:31:22.919Z,7.27
2023-02-07T01:33:58.014Z,7.27
2023-02-07T01:36:26.127Z,7.20
2023-02-07T01:38:54.779Z,7.57
2023-02-07T01:41:23.397Z,8.00
2023-02-07T01:44:21.802Z,7.57
2023-02-07T01:46:49.372Z,7.80
2023-02-07T01:49:21.263Z,7.80
2023-02-07T01:51:56.368Z,7.90
2023-02-07T01:54:23.909Z,7.93
2023-02-07T01:56:57.400Z,8.77
2023-02-07T01:59:26.257Z,8.07
2023-02-07T02:01:53.539Z,7.60
2023-02-07T02:04:20.524Z,8.07
2023-02-07T02:06:47.915Z,8.23
2023-02-07T02:09:16.795Z,9.33
2023-02-07T02:11:56.298Z,8.07
2023-02-07T02:14:57.415Z,9.67
2023-02-07T02:17:27.269Z,9.63
2023-02-07T02:19:57.503Z,8.33
2023-02-07T02:22:48.877Z,8.43
2023-02-07T02:25:28.513Z,8.83
2023-02-07T02:28:24.339Z,9.37
2023-02-07T02:31:24.636Z,8.27
2023-02-07T02:34:14.377Z,9.37
2023-02-07T02:36:41.062Z,8.60
2023-02-07T02:39:26.407Z,8.27
2023-02-07T02:42:17.374Z,9.03
2023-02-07T02:45:04.910Z,8.83
2023-02-07T02:47:32.634Z,9.20
2023-02-07T02:49:59.853Z,7.53
2023-02-07T02:52:41.398Z,8.30
2023-02-07T02:55:17.812Z,9.03
2023-02-07T02:58:17.668Z,8.63
2023-02-07T03:01:06.420Z,8.80
2023-02-07T03:03:52.427Z,9.20
2023-02-07T03:06:21.960Z,9.53
2023-02-07T03:09:06.045Z,8.70
2023-02-07T03:11:41.757Z,9.23
2023-02-07T03:14:23.344Z,9.90
2023-02-07T03:17:00.347Z,8.93
2023-02-07T03:19:40.601Z,9.43
2023-02-07T03:22:13.200Z,8.53
2023-02-07T03:24:46.653Z,8.73
2023-02-07T03:27:17.012Z,8.60
2023-02-07T03:29:48.232Z,9.07
2023-02-07T03:32:16.754Z,9.00
2023-02-07T03:34:58.516Z,9.80
2023-02-07T03:37:27.651Z,9.43
2023-02-07T03:39:54.493Z,8.97
2023-02-07T03:42:31.382Z,9.27
2023-02-07T03:45:00.910Z,9.30
2023-02-07T03:47:28.692Z,9.07
2023-02-07T03:49:55.860Z,8.53
2023-02-07T03:52:22.755Z,9.43
2023-02-07T03:54:49.543Z,8.77
2023-02-07T03:57:16.308Z,10.77
2023-02-07T03:59:43.205Z,9.90
2023-02-07T04:02:10.070Z,8.60
2023-02-07T04:04:37.344Z,8.50
2023-02-07T04:07:04.104Z,9.60
2023-02-07T04:09:30.975Z,9.37
2023-02-07T04:11:57.803Z,9.93
2023-02-07T04:14:24.612Z,9.70
2023-02-07T04:16:51.398Z,10.63
2023-02-07T04:19:18.199Z,10.13
2023-02-07T04:21:44.995Z,9.73
2023-02-07T04:24:12.348Z,11.37
2023-02-07T04:26:39.370Z,10.67
2023-02-07T04:29:06.526Z,10.23
2023-02-07T04:31:33.371Z,10.17
2023-02-07T04:34:00.243Z,10.67
2023-02-07T04:36:29.761Z,10.27
2023-02-07T04:38:56.626Z,11.77
2023-02-07T04:41:24.533Z,10.27
2023-02-07T04:43:51.387Z,11.73
2023-02-07T04:46:18.081Z,11.13
2023-02-07T04:48:45.009Z,11.97
2023-02-07T04:51:12.126Z,12.30
2023-02-07T04:53:38.843Z,10.90
2023-02-07T04:56:06.257Z,11.00
2023-02-07T04:58:33.151Z,11.30
2023-02-07T05:00:59.942Z,12.17
2023-02-07T05:03:26.773Z,13.23
2023-02-07T05:05:55.294Z,12.60
2023-02-07T05:08:22.918Z,13.17
2023-02-07T05:10:54.742Z,12.27
2023-02-07T05:13:22.219Z,13.60
2023-02-07T05:15:49.342Z,11.60
2023-02-07T05:18:16.397Z,12.33
2023-02-07T05:20:43.458Z,13.40
2023-02-07T05:23:10.542Z,12.10
2023-02-07T05:25:37.633Z,12.67
2023-02-07T05:28:04.805Z,12.90
2023-02-07T05:30:31.718Z,14.13
2023-02-07T05:33:04.248Z,12.17
2023-02-07T05:35:41.975Z,13.13
2023-02-07T05:38:11.098Z,12.20
2023-02-07T05:40:39.878Z,12.87
2023-02-07T05:43:07.055Z,12.30
2023-02-07T05:45:34.266Z,12.37
2023-02-07T05:48:01.422Z,12.90
2023-02-07T05:50:28.528Z,11.60
2023-02-07T05:52:55.235Z,12.93
2023-02-07T05:55:22.035Z,12.47
2023-02-07T05:57:48.788Z,11.57
2023-02-07T06:00:18.548Z,13.37
2023-02-07T06:02:45.386Z,11.37
2023-02-07T06:05:15.326Z,11.27
2023-02-07T06:07:42.194Z,11.33
2023-02-07T06:10:09.535Z,10.87
2023-02-07T06:12:36.337Z,11.03
2023-02-07T06:15:03.986Z,11.47
2023-02-07T06:17:30.795Z,10.10
2023-02-07T06:19:57.516Z,11.30
2023-02-07T06:22:24.350Z,10.63
2023-02-07T06:24:51.157Z,10.17
2023-02-07T06:27:18.100Z,10.60
2023-02-07T06:29:44.852Z,11.27
2023-02-07T06:32:11.589Z,10.63
2023-02-07T06:34:38.350Z,10.37
2023-02-07T06:37:05.126Z,9.43
2023-02-07T06:39:31.871Z,10.37
2023-02-07T06:41:58.608Z,9.53
2023-02-07T06:44:25.302Z,10.20
2023-02-07T06:46:52.092Z,9.83
2023-02-07T06:49:18.898Z,10.27
2023-02-07T06:51:45.677Z,10.10
2023-02-07T06:54:12.529Z,10.30
2023-02-07T06:56:39.323Z,9.93
2023-02-07T06:59:06.081Z,9.47
2023-02-07T07:01:32.865Z,9.60
2023-02-07T07:03:59.704Z,9.43
2023-02-07T07:06:26.466Z,10.23
2023-02-07T07:08:53.303Z,11.20
2023-02-07T07:11:20.403Z,10.00
2023-02-07T07:13:47.357Z,10.27
2023-02-07T07:16:14.581Z,11.23
2023-02-07T07:18:41.433Z,11.37
2023-02-07T07:21:09.305Z,11.40
2023-02-07T07:23:36.393Z,10.37
2023-02-07T07:26:03.309Z,11.87
2023-02-07T07:28:30.570Z,10.80
2023-02-07T07:31:03.573Z,10.87
2023-02-07T07:33:30.391Z,11.43
2023-02-07T07:35:58.503Z,9.90
2023-02-07T07:38:25.257Z,10.90
2023-02-07T07:40:52.036Z,10.37
2023-02-07T07:43:18.793Z,10.43
2023-02-07T07:45:51.255Z,9.43
2023-02-07T07:48:18.135Z,10.67
2023-02-07T07:50:44.852Z,10.97
2023-02-07T07:53:11.624Z,10.67
2023-02-07T07:55:39.006Z,10.03
2023-02-07T07:58:05.924Z,9.97
2023-02-07T08:00:32.801Z,9.50
2023-02-07T08:02:59.951Z,9.57
2023-02-07T08:05:26.730Z,9.93
2023-02-07T08:07:53.497Z,10.67
2023-02-07T08:10:20.252Z,9.77
2023-02-07T08:12:47.079Z,9.50
2023-02-07T08:15:14.715Z,9.87
2023-02-07T08:17:41.415Z,9.63
2023-02-07T08:20:08.825Z,9.67
2023-02-07T08:22:35.736Z,10.33
2023-02-07T08:25:02.548Z,9.77
2023-02-07T08:27:29.432Z,11.10
2023-02-07T08:29:56.252Z,11.30
2023-02-07T08:32:23.199Z,10.03
2023-02-07T08:34:50.150Z,9.13
2023-02-07T08:37:16.931Z,10.30
2023-02-07T08:39:43.788Z,10.53
2023-02-07T08:42:10.620Z,10.43
2023-02-07T08:44:37.527Z,10.37
2023-02-07T08:47:04.598Z,11.40
2023-02-07T08:49:31.524Z,10.97
2023-02-07T08:51:58.250Z,10.93
2023-02-07T08:54:25.189Z,11.10
2023-02-07T08:56:51.939Z,11.43
2023-02-07T08:59:18.754Z,11.00
2023-02-07T09:01:45.479Z,11.37
2023-02-07T09:04:12.708Z,10.90
2023-02-07T09:06:40.090Z,10.30
2023-02-07T09:09:07.525Z,11.40
2023-02-07T09:11:34.375Z,10.37
2023-02-07T09:14:01.175Z,11.23
2023-02-07T09:16:28.054Z,9.90
2023-02-07T09:18:55.030Z,10.73
2023-02-07T09:21:21.981Z,9.67
2023-02-07T09:23:49.592Z,10.60
2023-02-07T09:26:19.907Z,9.43
2023-02-07T09:28:46.760Z,9.63
2023-02-07T09:31:15.199Z,9.37
2023-02-07T09:33:42.671Z,9.73
2023-02-07T09:36:35.822Z,10.50
2023-02-07T09:39:04.053Z,9.97
2023-02-07T09:42:05.973Z,10.33
2023-02-07T09:45:09.890Z,9.70
2023-02-07T09:47:40.428Z,8.40
2023-02-07T09:50:16.500Z,9.20
2023-02-07T09:53:08.743Z,9.33
2023-02-07T09:55:50.506Z,9.20
2023-02-07T09:58:41.020Z,8.97
2023-02-07T10:01:17.940Z,8.53
2023-02-07T10:04:05.516Z,8.10
2023-02-07T10:06:34.887Z,7.93
2023-02-07T10:09:01.719Z,8.37
2023-02-07T10:11:56.952Z,8.20
2023-02-07T10:14:28.778Z,8.87
2023-02-07T10:17:31.426Z,7.83
2023-02-07T10:19:58.599Z,8.40
2023-02-07T10:22:51.478Z,8.20
2023-02-07T10:26:04.187Z,7.90
2023-02-07T10:28:36.561Z,7.47
2023-02-07T10:31:09.774Z,7.50
2023-02-07T10:33:39.057Z,7.37
2023-02-07T10:36:14.937Z,6.67
2023-02-07T10:39:08.400Z,6.60
2023-02-07T10:41:43.523Z,6.60
2023-02-07T10:44:19.351Z,6.73
2023-02-07T10:46:53.833Z,6.80
2023-02-07T10:49:25.716Z,6.90
2023-02-07T10:51:56.814Z,6.27
2023-02-07T10:54:26.392Z,6.47
2023-02-07T10:57:02.265Z,6.70
2023-02-07T10:59:40.560Z,5.73
2023-02-07T11:02:29.327Z,6.23
2023-02-07T11:04:58.278Z,6.23
2023-02-07T11:07:25.829Z,6.00
2023-02-07T11:10:12.530Z,5.53
2023-02-07T11:13:03.936Z,5.43
2023-02-07T11:15:46.032Z,5.20
2023-02-07T11:18:31.217Z,6.20
2023-02-07T11:20:58.035Z,4.87
2023-02-07T11:23:25.506Z,5.10
2023-02-07T11:25:55.853Z,4.53
2023-02-07T11:28:30.671Z,4.67
2023-02-07T11:31:08.326Z,4.57
2023-02-07T11:33:39.263Z,5.00
2023-02-07T11:36:30.417Z,3.83
2023-02-07T11:38:59.550Z,5.20
2023-02-07T11:41:32.196Z,5.10
2023-02-07T11:44:01.643Z,4.73
2023-02-07T11:46:38.795Z,4.60
2023-02-07T11:49:27.065Z,5.20
2023-02-07T11:51:58.099Z,4.50
2023-02-07T11:54:26.055Z,4.80
2023-02-07T11:57:00.592Z,5.00
2023-02-07T11:59:28.305Z,4.17
2023-02-07T12:02:01.967Z,4.40
2023-02-07T12:04:33.449Z,4.70
2023-02-07T12:07:25.712Z,4.30
2023-02-07T12:10:07.000Z,4.73
2023-02-07T12:12:50.347Z,4.67
2023-02-07T12:15:26.807Z,4.93
2023-02-07T12:18:13.774Z,4.87
2023-02-07T12:20:52.731Z,8.03
2023-02-07T12:23:43.271Z,5.10
2023-02-07T12:26:22.970Z,4.70
2023-02-07T12:29:13.653Z,4.93
2023-02-07T12:32:10.640Z,5.30
2023-02-07T12:35:05.484Z,4.20
2023-02-07T12:37:54.676Z,4.60
2023-02-07T12:40:39.405Z,4.03
2023-02-07T12:43:22.381Z,4.67
2023-02-07T12:45:54.972Z,4.50
2023-02-07T12:48:33.858Z,4.67
2023-02-07T12:51:32.856Z,5.57
2023-02-07T12:54:17.385Z,4.50
2023-02-07T12:57:09.252Z,4.70
2023-02-07T13:00:00.738Z,5.20
2023-02-07T13:02:35.549Z,4.57
2023-02-07T13:05:19.795Z,4.93
2023-02-07T13:08:24.292Z,5.70
2023-02-07T13:11:05.813Z,4.87
2023-02-07T13:13:48.501Z,5.03
2023-02-07T13:16:35.320Z,4.83
2023-02-07T13:19:33.860Z,4.60
2023-02-07T13:22:07.091Z,4.90
2023-02-07T13:24:38.176Z,5.13
2023-02-07T13:27:11.990Z,4.33
2023-02-07T13:29:40.814Z,5.37
2023-02-07T13:32:13.288Z,5.27
2023-02-07T13:35:06.400Z,5.13
2023-02-07T13:38:08.472Z,5.03
2023-02-07T13:40:38.498Z,5.17
2023-02-07T13:43:14.003Z,5.20
2023-02-07T13:45:46.629Z,4.83
2023-02-07T13:48:46.947Z,4.57
2023-02-07T13:51:30.876Z,4.83
2023-02-07T13:54:30.968Z,5.37
2023-02-07T13:57:18.740Z,5.30
2023-02-07T14:00:05.577Z,4.97
2023-02-07T14:02:40.965Z,4.40
2023-02-07T14:05:11.208Z,4.37
2023-02-07T14:07:39.438Z,4.43
2023-02-07T14:10:08.470Z,4.60
2023-02-07T14:12:39.421Z,4.57
2023-02-07T14:15:42.785Z,5.00
2023-02-07T14:18:49.823Z,4.50
2023-02-07T14:21:22.124Z,4.63
2023-02-07T14:24:10.227Z,5.03
2023-02-07T14:26:39.758Z,4.23
2023-02-07T14:29:24.567Z,4.30
2023-02-07T14:31:58.142Z,4.40
2023-02-07T14:34:51.930Z,4.47
2023-02-07T14:37:49.266Z,4.77
2023-02-07T14:40:32.862Z,5.00
2023-02-07T14:43:04.444Z,4.60
2023-02-07T14:45:34.569Z,4.33
2023-02-07T14:48:02.152Z,5.40
2023-02-07T14:50:30.787Z,4.87
2023-02-07T14:53:04.545Z,4.50
2023-02-07T14:55:50.478Z,5.27
2023-02-07T14:58:34.654Z,5.10
2023-02-07T15:01:01.423Z,5.00
2023-02-07T15:03:32.827Z,5.10
2023-02-07T15:06:02.891Z,4.70
2023-02-07T15:08:34.624Z,5.17
2023-02-07T15:11:06.979Z,4.80
2023-02-07T15:13:47.321Z,5.50
2023-02-07T15:16:24.627Z,5.03
2023-02-07T15:18:51.703Z,4.97
2023-02-07T15:21:30.259Z,5.17
2023-02-07T15:24:21.478Z,4.77
2023-02-07T15:26:56.754Z,5.07
2023-02-07T15:29:29.315Z,6.10
2023-02-07T15:31:56.689Z,5.60
2023-02-07T15:34:31.636Z,4.77
2023-02-07T15:37:00.929Z,5.90
2023-02-07T15:39:29.928Z,5.83
2023-02-07T15:42:03.652Z,5.80
2023-02-07T15:44:46.169Z,5.70
2023-02-07T15:47:36.183Z,6.00
2023-02-07T15:50:06.294Z,5.50
2023-02-07T15:52:50.083Z,5.87
2023-02-07T15:55:44.875Z,6.00
2023-02-07T15:58:38.027Z,5.73
2023-02-07T16:01:14.185Z,5.33
2023-02-07T16:03:47.279Z,5.37
2023-02-07T16:06:23.807Z,6.03
2023-02-07T16:08:59.006Z,6.30
2023-02-07T16:11:25.796Z,6.33
2023-02-07T16:14:14.025Z,6.00
2023-02-07T16:16:47.985Z,5.90
2023-02-07T16:19:14.656Z,5.20
2023-02-07T16:21:50.295Z,5.90
2023-02-07T16:24:22.015Z,6.30
2023-02-07T16:26:50.761Z,5.97
2023-02-07T16:29:20.307Z,6.43
2023-02-07T16:31:47.776Z,6.17
2023-02-07T16:34:16.809Z,6.40
2023-02-07T16:36:44.622Z,6.87
2023-02-07T16:39:11.444Z,6.60
2023-02-07T16:41:43.679Z,6.60
2023-02-07T16:44:18.998Z,7.27
2023-02-07T16:46:46.020Z,6.40
2023-02-07T16:49:21.605Z,6.83
2023-02-07T16:51:49.150Z,7.13
2023-02-07T16:54:15.921Z,6.13
2023-02-07T16:56:47.901Z,8.77
2023-02-07T16:59:20.426Z,22.13
2023-02-07T17:01:48.877Z,11.27
2023-02-07T17:04:15.683Z,18.30
2023-02-07T17:06:44.985Z,7.93
2023-02-07T17:09:24.151Z,9.27
2023-02-07T17:11:52.540Z,20.90
2023-02-07T17:14:19.857Z,48.80
2023-02-07T17:16:46.752Z,113.87
2023-02-07T17:19:18.323Z,70.17
2023-02-07T17:21:46.837Z,37.33
2023-02-07T17:24:14.031Z,46.37
2023-02-07T17:26:43.884Z,33.87
2023-02-07T17:29:13.256Z,24.37
2023-02-07T17:31:41.106Z,15.27
2023-02-07T17:34:08.219Z,9.10
2023-02-07T17:36:35.190Z,7.23
2023-02-07T17:39:02.632Z,8.13
2023-02-07T17:41:30.936Z,8.67
2023-02-07T17:43:57.705Z,7.33
2023-02-07T17:46:26.759Z,7.93
2023-02-07T17:48:54.742Z,8.23
2023-02-07T17:51:23.961Z,8.40
2023-02-07T17:53:51.853Z,7.93
2023-02-07T17:56:26.688Z,11.37
2023-02-07T17:58:55.166Z,12.07
2023-02-07T18:01:23.930Z,10.17
2023-02-07T18:03:53.525Z,9.47
2023-02-07T18:06:23.961Z,10.50
2023-02-07T18:08:50.894Z,11.33
2023-02-07T18:11:18.034Z,11.83
2023-02-07T18:13:47.728Z,10.67
2023-02-07T18:16:24.576Z,10.77
2023-02-07T18:18:52.256Z,8.10
2023-02-07T18:21:19.725Z,8.23
2023-02-07T18:23:46.605Z,9.53
2023-02-07T18:26:15.727Z,13.23
2023-02-07T18:28:43.789Z,11.83
2023-02-07T18:31:16.968Z,12.90
2023-02-07T18:33:43.994Z,11.47
2023-02-07T18:36:10.745Z,10.37
2023-02-07T18:38:38.480Z,9.40
2023-02-07T18:41:14.174Z,8.50
2023-02-07T18:43:42.550Z,8.60
2023-02-07T18:46:17.707Z,9.07
2023-02-07T18:48:46.132Z,8.67
2023-02-07T18:51:15.218Z,8.47
2023-02-07T18:53:43.049Z,7.57
2023-02-07T18:56:16.656Z,9.87
2023-02-07T18:58:46.667Z,13.87
2023-02-07T19:01:20.089Z,18.00
2023-02-07T19:03:51.280Z,27.57
2023-02-07T19:06:18.181Z,27.37
2023-02-07T19:08:44.916Z,15.63
2023-02-07T19:11:23.736Z,22.55
2023-02-07T19:13:51.641Z,9.87
2023-02-07T19:16:21.258Z,8.47
2023-02-07T19:18:48.516Z,9.57
2023-02-07T19:21:19.093Z,8.80
2023-02-07T19:23:45.925Z,9.33
2023-02-07T19:26:12.938Z,9.43
2023-02-07T19:28:39.877Z,18.20
2023-02-07T19:31:08.731Z,16.47
2023-02-07T19:33:36.452Z,10.53
2023-02-07T19:36:08.466Z,13.80
2023-02-07T19:38:35.253Z,16.17
2023-02-07T19:41:02.844Z,10.73
2023-02-07T19:43:30.186Z,9.07
2023-02-07T19:45:57.404Z,10.27
2023-02-07T19:48:24.553Z,11.27
2023-02-07T19:51:03.096Z,11.67
2023-02-07T19:53:30.998Z,12.30
2023-02-07T19:56:08.867Z,11.43
2023-02-07T19:58:37.531Z,11.33
2023-02-07T20:01:04.350Z,10.70
2023-02-07T20:03:31.464Z,10.73
2023-02-07T20:06:08.885Z,10.33
2023-02-07T20:08:38.687Z,9.63
2023-02-07T20:11:12.426Z,9.37
2023-02-07T20:13:41.855Z,8.70
2023-02-07T20:16:12.450Z,8.73
2023-02-07T20:18:39.520Z,8.30
2023-02-07T20:21:11.849Z,8.30
2023-02-07T20:23:41.617Z,8.97
2023-02-07T20:26:11.818Z,9.20
2023-02-07T20:28:39.013Z,9.10
2023-02-07T20:31:08.081Z,9.90
2023-02-07T20:33:36.610Z,10.80
2023-02-07T20:36:04.533Z,13.90
2023-02-07T20:38:31.295Z,16.23
2023-02-07T20:41:06.785Z,12.47
2023-02-07T20:43:33.578Z,12.03
2023-02-07T20:46:08.270Z,11.23
2023-02-07T20:48:35.363Z,10.43
2023-02-07T20:51:09.772Z,9.23
2023-02-07T20:53:41.255Z,8.83
2023-02-07T20:56:13.986Z,9.50
2023-02-07T20:58:41.058Z,8.00
2023-02-07T21:01:14.970Z,8.90
2023-02-07T21:03:42.096Z,8.17
2023-02-07T21:06:09.626Z,8.60
2023-02-07T21:08:37.700Z,8.23
2023-02-07T21:11:05.925Z,8.10
2023-02-07T21:13:32.772Z,9.27
2023-02-07T21:16:03.538Z,8.67
2023-02-07T21:18:31.369Z,9.73
2023-02-07T21:20:58.207Z,9.43
2023-02-07T21:23:25.028Z,8.60
2023-02-07T21:25:53.141Z,8.97
2023-02-07T21:28:20.036Z,8.90
2023-02-07T21:30:46.834Z,9.10
2023-02-07T21:33:13.666Z,8.10
2023-02-07T21:35:40.439Z,8.97
2023-02-07T21:38:07.182Z,8.53
2023-02-07T21:40:34.452Z,7.70
2023-02-07T21:43:01.198Z,8.03
2023-02-07T21:45:28.097Z,8.97
2023-02-07T21:47:54.907Z,7.80
2023-02-07T21:50:21.673Z,7.73
2023-02-07T21:52:48.558Z,8.47
2023-02-07T21:55:15.705Z,7.93
2023-02-07T21:57:42.387Z,8.57
2023-02-07T22:00:12.080Z,8.57
2023-02-07T22:02:39.011Z,7.53
2023-02-07T22:05:06.095Z,8.63
2023-02-07T22:07:32.846Z,8.17
2023-02-07T22:09:59.538Z,8.67
2023-02-07T22:12:26.290Z,8.60
2023-02-07T22:14:53.060Z,8.47
2023-02-07T22:17:19.800Z,7.40
2023-02-07T22:19:50.325Z,8.60
2023-02-07T22:22:17.496Z,7.47
2023-02-07T22:24:44.397Z,7.97
2023-02-07T22:27:11.227Z,8.13
2023-02-07T22:29:37.984Z,7.47
2023-02-07T22:32:04.961Z,8.17
2023-02-07T22:34:31.658Z,7.77
2023-02-07T22:36:58.419Z,7.07
2023-02-07T22:39:25.156Z,7.90
2023-02-07T22:41:56.375Z,7.93
2023-02-07T22:44:24.883Z,8.50
2023-02-07T22:46:51.928Z,7.50
2023-02-07T22:49:19.151Z,7.33
2023-02-07T22:51:46.269Z,8.53
2023-02-07T22:54:20.004Z,8.73
2023-02-07T22:56:46.932Z,8.70
2023-02-07T22:59:13.724Z,8.27
2023-02-07T23:01:41.620Z,7.90
2023-02-07T23:04:13.224Z,7.77
2023-02-07T23:06:40.338Z,8.33
2023-02-07T23:09:07.613Z,8.27
2023-02-07T23:11:34.769Z,8.20
2023-02-07T23:14:02.334Z,7.80
2023-02-07T23:16:30.922Z,7.80
2023-02-07T23:19:03.740Z,8.03
2023-02-07T23:21:30.704Z,8.10
2023-02-07T23:23:58.576Z,8.17
2023-02-07T23:26:26.750Z,7.60
2023-02-07T23:28:53.589Z,7.57
2023-02-07T23:31:22.545Z,7.40
2023-02-07T23:33:49.770Z,7.50
2023-02-07T23:36:17.928Z,7.50
2023-02-07T23:38:45.822Z,8.43
2023-02-07T23:41:13.179Z,8.20
2023-02-07T23:43:39.974Z,7.40
2023-02-07T23:46:08.174Z,7.43
2023-02-07T23:48:37.780Z,7.90
2023-02-07T23:51:06.299Z,8.70
2023-02-07T23:53:33.020Z,8.50
2023-02-07T23:55:59.973Z,7.40
2023-02-07T23:58:27.978Z,7.67
